Diamantis P — A8WA2 — position and weather

sailwx.info

Track history (hours):
 
Tides and Currents Weather Stations Pressure Air Temp Water Temp Dewpoint Dewpoint Depression Visibility Wind Speed Wind Dir Waves Ship Positions

Diamantis P

Last reported at 2018-Aug-13 21:41 UTC. Time now 2018-Aug-14 19:26 UTC.
Position N 32°57' E 034°38'.

Length 188 m; draft 8.2 m.

Type: Cargo ship. MMSI: 636014699.

Date/timePositionNaut miles runAvg speedWind from/ knotsBaromVisibWave heightAir tempDewpointWater temp
2018-Aug-13 21:41N 32°57' E 034°38'212.9
2018-Aug-13 21:30N 32°56' E 034°41'713.9
2018-Aug-13 20:59N 32°55' E 034°49'613.4
2018-Aug-13 20:30N 32°53' E 034°57'3 0.3
2018-Aug-13 09:57N 32°51' E 034°59'2 4.3
2018-Aug-13 09:27N 32°52' E 034°57'4 7.2
2018-Aug-13 08:53N 32°53' E 034°52'512.3
2018-Aug-13 08:30N 32°49' E 034°49'714.0
2018-Aug-13 08:00N 32°42' E 034°47'714.0
2018-Aug-13 07:30N 32°35' E 034°45'713.8
2018-Aug-13 07:01N 32°29' E 034°42'713.8
2018-Aug-13 06:30N 32°22' E 034°40'713.8
2018-Aug-13 06:00N 32°15' E 034°37'  
2018-Aug-09 22:39N 33°05' E 034°04'214.0
2018-Aug-09 22:30N 33°07' E 034°04'714.1
2018-Aug-09 22:00N 33°14' E 034°04'714.1
2018-Aug-09 21:29N 33°21' E 034°04'1414.0
2018-Aug-09 20:30N 33°35' E 034°06'714.0
2018-Aug-09 20:01N 33°42' E 034°09'713.9
2018-Aug-09 19:30N 33°48' E 034°11'713.8
2018-Aug-09 19:00N 33°55' E 034°13'713.6
2018-Aug-09 18:30N 34°02' E 034°15'713.7
2018-Aug-09 18:00N 34°08' E 034°17'714.0
2018-Aug-09 17:30N 34°15' E 034°19'  
2018-Aug-07 00:41N 37°13' E 025°51'214.0
2018-Aug-07 00:30N 37°16' E 025°49'714.7
2018-Aug-07 00:00N 37°23' E 025°49'814.2
2018-Aug-06 23:28N 37°31' E 025°48'714.0
2018-Aug-06 22:57N 37°38' E 025°48'714.3
2018-Aug-06 22:27N 37°45' E 025°47'97 2.0
2018-Aug-04 22:37N 37°38' E 023°45'214.5
2018-Aug-04 22:30N 37°39' E 023°43'714.7
2018-Aug-04 22:00N 37°46' E 023°39'714.7
2018-Aug-04 21:30N 37°53' E 023°36'4 8.7
2018-Aug-04 21:00N 37°57' E 023°35'0 0.4
2018-Aug-04 20:28N 37°57' E 023°35'0 0.0
2018-Aug-04 19:58N 37°57' E 023°35'0 0.0
2018-Aug-04 19:28N 37°57' E 023°35'0 0.0
2018-Aug-04 18:58N 37°57' E 023°35'0 0.0
2018-Aug-04 18:28N 37°57' E 023°35'0 0.0
2018-Aug-04 17:58N 37°57' E 023°35'0 0.0
2018-Aug-04 17:28N 37°57' E 023°35'0 0.0
2018-Aug-04 16:58N 37°57' E 023°35'0 0.0
2018-Aug-04 16:28N 37°57' E 023°35'0 0.0
2018-Aug-04 15:58N 37°57' E 023°35'0 0.0
2018-Aug-04 15:28N 37°57' E 023°35'0 0.0
2018-Aug-04 14:58N 37°57' E 023°35'0 0.0
2018-Aug-04 14:28N 37°57' E 023°35'0 0.0
2018-Aug-04 13:58N 37°57' E 023°35'0 0.0
2018-Aug-04 13:28N 37°57' E 023°35'0 0.0
2018-Aug-04 12:58N 37°57' E 023°35'0 0.0
2018-Aug-04 12:28N 37°57' E 023°35'0 0.1
2018-Aug-04 11:58N 37°57' E 023°35'0 0.0
2018-Aug-04 11:28N 37°57' E 023°35'0 0.0
2018-Aug-04 10:58N 37°57' E 023°35'0 0.0
2018-Aug-04 10:28N 37°57' E 023°35'0 0.0
2018-Aug-04 09:58N 37°57' E 023°35'0 0.0
2018-Aug-04 09:28N 37°57' E 023°35'0 0.0
2018-Aug-04 08:58N 37°57' E 023°35'0 0.0
2018-Aug-04 08:28N 37°57' E 023°35'0 0.0
2018-Aug-04 07:58N 37°57' E 023°35'0 0.0
2018-Aug-04 07:28N 37°57' E 023°35'0 0.0
2018-Aug-04 06:58N 37°57' E 023°35'0 0.0
2018-Aug-04 06:28N 37°57' E 023°35'0 0.0
2018-Aug-04 05:58N 37°57' E 023°35'0 0.0
2018-Aug-04 05:28N 37°57' E 023°35'0 0.0
2018-Aug-04 04:58N 37°57' E 023°35'0 0.0
2018-Aug-04 04:28N 37°57' E 023°35'0 0.0
2018-Aug-04 03:58N 37°57' E 023°35'0 0.0
2018-Aug-04 03:28N 37°57' E 023°35'0 0.0
2018-Aug-04 02:58N 37°57' E 023°35'0 0.0
2018-Aug-04 02:28N 37°57' E 023°35'0 0.0
2018-Aug-04 01:58N 37°57' E 023°35'0 0.0
2018-Aug-04 01:28N 37°57' E 023°35'0 0.0
2018-Aug-04 00:58N 37°57' E 023°35'0 0.0
2018-Aug-04 00:28N 37°57' E 023°35'0 0.0
2018-Aug-03 23:58N 37°57' E 023°35'0 0.0
2018-Aug-03 23:28N 37°57' E 023°35'0 0.0
2018-Aug-03 22:58N 37°57' E 023°35'0 0.0
2018-Aug-03 22:28N 37°57' E 023°35'0 0.0
2018-Aug-03 21:58N 37°57' E 023°35'  
Track history (hours):
 
Tides and Currents Weather Stations Pressure Air Temp Water Temp Dewpoint Dewpoint Depression Visibility Wind Speed Wind Dir Waves Ship Positions

Diamantis P

Last reported at 2018-Aug-13 21:41 UTC. Time now 2018-Aug-14 19:26 UTC.
Position N 32°57' E 034°38'.

Length 188 m; draft 8.2 m.

Type: Cargo ship. MMSI: 636014699.

Date/timePositionNaut miles runAvg speedWind from/ knotsBaromVisibWave heightAir tempDewpointWater temp
2018-Aug-13 21:41N 32°57' E 034°38'212.9
2018-Aug-13 21:30N 32°56' E 034°41'713.9
2018-Aug-13 20:59N 32°55' E 034°49'613.4
2018-Aug-13 20:30N 32°53' E 034°57'3 0.3
2018-Aug-13 09:57N 32°51' E 034°59'2 4.3
2018-Aug-13 09:27N 32°52' E 034°57'4 7.2
2018-Aug-13 08:53N 32°53' E 034°52'512.3
2018-Aug-13 08:30N 32°49' E 034°49'714.0
2018-Aug-13 08:00N 32°42' E 034°47'714.0
2018-Aug-13 07:30N 32°35' E 034°45'713.8
2018-Aug-13 07:01N 32°29' E 034°42'713.8
2018-Aug-13 06:30N 32°22' E 034°40'713.8
2018-Aug-13 06:00N 32°15' E 034°37'  
2018-Aug-09 22:39N 33°05' E 034°04'214.0
2018-Aug-09 22:30N 33°07' E 034°04'714.1
2018-Aug-09 22:00N 33°14' E 034°04'714.1
2018-Aug-09 21:29N 33°21' E 034°04'1414.0
2018-Aug-09 20:30N 33°35' E 034°06'714.0
2018-Aug-09 20:01N 33°42' E 034°09'713.9
2018-Aug-09 19:30N 33°48' E 034°11'713.8
2018-Aug-09 19:00N 33°55' E 034°13'713.6
2018-Aug-09 18:30N 34°02' E 034°15'713.7
2018-Aug-09 18:00N 34°08' E 034°17'714.0
2018-Aug-09 17:30N 34°15' E 034°19'  
2018-Aug-07 00:41N 37°13' E 025°51'214.0
2018-Aug-07 00:30N 37°16' E 025°49'714.7
2018-Aug-07 00:00N 37°23' E 025°49'814.2
2018-Aug-06 23:28N 37°31' E 025°48'714.0
2018-Aug-06 22:57N 37°38' E 025°48'714.3
2018-Aug-06 22:27N 37°45' E 025°47'97 2.0
2018-Aug-04 22:37N 37°38' E 023°45'214.5
2018-Aug-04 22:30N 37°39' E 023°43'714.7
2018-Aug-04 22:00N 37°46' E 023°39'714.7
2018-Aug-04 21:30N 37°53' E 023°36'4 8.7
2018-Aug-04 21:00N 37°57' E 023°35'0 0.4
2018-Aug-04 20:28N 37°57' E 023°35'0 0.0
2018-Aug-04 19:58N 37°57' E 023°35'0 0.0
2018-Aug-04 19:28N 37°57' E 023°35'0 0.0
2018-Aug-04 18:58N 37°57' E 023°35'0 0.0
2018-Aug-04 18:28N 37°57' E 023°35'0 0.0
2018-Aug-04 17:58N 37°57' E 023°35'0 0.0
2018-Aug-04 17:28N 37°57' E 023°35'0 0.0
2018-Aug-04 16:58N 37°57' E 023°35'0 0.0
2018-Aug-04 16:28N 37°57' E 023°35'0 0.0
2018-Aug-04 15:58N 37°57' E 023°35'0 0.0
2018-Aug-04 15:28N 37°57' E 023°35'0 0.0
2018-Aug-04 14:58N 37°57' E 023°35'0 0.0
2018-Aug-04 14:28N 37°57' E 023°35'0 0.0
2018-Aug-04 13:58N 37°57' E 023°35'0 0.0
2018-Aug-04 13:28N 37°57' E 023°35'0 0.0
2018-Aug-04 12:58N 37°57' E 023°35'0 0.0
2018-Aug-04 12:28N 37°57' E 023°35'0 0.1
2018-Aug-04 11:58N 37°57' E 023°35'0 0.0
2018-Aug-04 11:28N 37°57' E 023°35'0 0.0
2018-Aug-04 10:58N 37°57' E 023°35'0 0.0
2018-Aug-04 10:28N 37°57' E 023°35'0 0.0
2018-Aug-04 09:58N 37°57' E 023°35'0 0.0
2018-Aug-04 09:28N 37°57' E 023°35'0 0.0
2018-Aug-04 08:58N 37°57' E 023°35'0 0.0
2018-Aug-04 08:28N 37°57' E 023°35'0 0.0
2018-Aug-04 07:58N 37°57' E 023°35'0 0.0
2018-Aug-04 07:28N 37°57' E 023°35'0 0.0
2018-Aug-04 06:58N 37°57' E 023°35'0 0.0
2018-Aug-04 06:28N 37°57' E 023°35'0 0.0
2018-Aug-04 05:58N 37°57' E 023°35'0 0.0
2018-Aug-04 05:28N 37°57' E 023°35'0 0.0
2018-Aug-04 04:58N 37°57' E 023°35'0 0.0
2018-Aug-04 04:28N 37°57' E 023°35'0 0.0
2018-Aug-04 03:58N 37°57' E 023°35'0 0.0
2018-Aug-04 03:28N 37°57' E 023°35'0 0.0
2018-Aug-04 02:58N 37°57' E 023°35'0 0.0
2018-Aug-04 02:28N 37°57' E 023°35'0 0.0
2018-Aug-04 01:58N 37°57' E 023°35'0 0.0
2018-Aug-04 01:28N 37°57' E 023°35'0 0.0
2018-Aug-04 00:58N 37°57' E 023°35'0 0.0
2018-Aug-04 00:28N 37°57' E 023°35'0 0.0
2018-Aug-03 23:58N 37°57' E 023°35'0 0.0
2018-Aug-03 23:28N 37°57' E 023°35'0 0.0
2018-Aug-03 22:58N 37°57' E 023°35'0 0.0
2018-Aug-03 22:28N 37°57' E 023°35'0 0.0
2018-Aug-03 21:58N 37°57' E 023°35'  

Dump ship's entire track history